createdAt,value
2022-12-03T05:30:35.927Z,86.27
2022-12-03T05:31:35.896Z,86.21
2022-12-03T05:32:35.796Z,86.38
2022-12-03T05:33:40.837Z,86.73
2022-12-03T05:34:36.781Z,86.42
2022-12-03T05:35:35.803Z,86.63
2022-12-03T05:36:35.785Z,86.21
2022-12-03T05:37:36.725Z,86.42
2022-12-03T05:38:35.803Z,86.52
2022-12-03T05:39:38.939Z,87.25
2022-12-03T05:40:35.859Z,86.63
2022-12-03T05:41:38.781Z,86.52
2022-12-03T05:42:36.459Z,86.73
2022-12-03T05:43:38.698Z,86.73
2022-12-03T05:44:37.192Z,86.52
2022-12-03T05:45:35.956Z,86.52
2022-12-03T05:46:36.149Z,86.94
2022-12-03T05:47:35.737Z,87.15
2022-12-03T05:48:37.753Z,87.25
2022-12-03T05:49:36.703Z,87.35
2022-12-03T05:50:38.661Z,87.25
2022-12-03T05:51:36.151Z,87.25
2022-12-03T05:52:35.801Z,87.04
2022-12-03T05:53:35.716Z,86.42
2022-12-03T05:54:35.799Z,86.52
2022-12-03T05:55:35.651Z,86.42
2022-12-03T05:56:35.602Z,86.52
2022-12-03T05:57:38.526Z,87.15
2022-12-03T05:58:35.684Z,87.40
2022-12-03T05:59:35.599Z,87.04
2022-12-03T06:00:41.831Z,87.35
2022-12-03T06:01:37.311Z,87.25
2022-12-03T06:02:36.550Z,87.15
2022-12-03T06:03:36.001Z,86.46
2022-12-03T06:04:35.577Z,87.15
2022-12-03T06:05:37.760Z,86.57
2022-12-03T06:06:37.939Z,86.98
2022-12-03T06:07:35.707Z,87.15
2022-12-03T06:08:35.997Z,87.25
2022-12-03T06:09:35.489Z,87.29
2022-12-03T06:10:37.106Z,87.29
2022-12-03T06:11:40.697Z,87.46
2022-12-03T06:12:36.803Z,87.19
2022-12-03T06:13:36.466Z,87.46
2022-12-03T06:14:37.987Z,87.29
2022-12-03T06:15:40.415Z,87.25
2022-12-03T06:16:38.278Z,86.88
2022-12-03T06:17:35.492Z,87.40
2022-12-03T06:18:35.419Z,87.25
2022-12-03T06:19:35.450Z,87.19
2022-12-03T06:20:38.103Z,87.29
2022-12-03T06:21:36.578Z,87.25
2022-12-03T06:22:38.406Z,87.77
2022-12-03T06:23:38.153Z,87.46
2022-12-03T06:24:38.870Z,87.46
2022-12-03T06:25:35.613Z,86.63
2022-12-03T06:26:35.428Z,86.63
2022-12-03T06:27:35.439Z,86.21
2022-12-03T06:28:36.991Z,86.21
2022-12-03T06:29:37.461Z,87.35
2022-12-03T06:30:35.193Z,87.66
2022-12-03T06:31:56.397Z,87.25
2022-12-03T06:32:35.568Z,87.35
2022-12-03T06:33:38.391Z,87.46
2022-12-03T06:34:39.537Z,87.35
2022-12-03T06:35:35.322Z,87.25
2022-12-03T06:36:37.452Z,87.25
2022-12-03T06:37:39.167Z,87.66
2022-12-03T06:38:35.231Z,87.46
2022-12-03T06:39:37.270Z,86.83
2022-12-03T06:40:36.032Z,86.83
2022-12-03T06:41:37.825Z,86.94
2022-12-03T06:42:38.556Z,87.25
2022-12-03T06:43:38.696Z,87.32
2022-12-03T06:44:35.250Z,86.63
2022-12-03T06:45:35.216Z,86.42
2022-12-03T06:46:37.862Z,86.00
2022-12-03T06:47:39.740Z,86.11
2022-12-03T06:48:35.231Z,86.42
2022-12-03T06:49:37.258Z,86.42
2022-12-03T06:50:35.070Z,86.42
2022-12-03T06:51:35.208Z,86.21
2022-12-03T06:52:38.202Z,86.42
2022-12-03T06:53:37.675Z,86.67
2022-12-03T06:54:35.107Z,86.42
2022-12-03T06:55:35.025Z,86.63
2022-12-03T06:56:39.026Z,86.63
2022-12-03T06:57:38.135Z,86.32
2022-12-03T06:58:34.908Z,86.42
2022-12-03T06:59:37.305Z,86.73
2022-12-03T07:00:36.742Z,86.94
2022-12-03T07:01:35.069Z,86.94
2022-12-03T07:02:34.919Z,87.04
2022-12-03T07:03:34.940Z,87.04
2022-12-03T07:04:35.192Z,87.04
2022-12-03T07:05:35.052Z,87.25
2022-12-03T07:06:35.022Z,87.35
2022-12-03T07:07:38.109Z,87.35
2022-12-03T07:08:34.826Z,86.83
2022-12-03T07:09:34.842Z,87.42
2022-12-03T07:10:34.869Z,87.42
2022-12-03T07:11:34.819Z,87.25
2022-12-03T07:12:35.425Z,87.01
2022-12-03T07:13:34.892Z,87.01
2022-12-03T07:14:36.490Z,86.27
2022-12-03T07:15:36.756Z,86.38
2022-12-03T07:16:34.787Z,86.07
2022-12-03T07:17:34.743Z,86.21
2022-12-03T07:18:34.700Z,86.42
2022-12-03T07:19:34.954Z,86.21
2022-12-03T07:20:34.739Z,87.15
2022-12-03T07:21:34.658Z,87.11
2022-12-03T07:22:34.646Z,87.01
2022-12-03T07:23:34.730Z,87.11
2022-12-03T07:24:34.983Z,86.90
2022-12-03T07:25:34.611Z,86.32
2022-12-03T07:26:34.613Z,86.52
2022-12-03T07:27:34.622Z,86.63
2022-12-03T07:28:34.650Z,87.04
2022-12-03T07:29:34.696Z,87.11
2022-12-03T07:30:34.564Z,86.80
2022-12-03T07:31:34.837Z,87.21
2022-12-03T07:32:34.697Z,86.52
2022-12-03T07:33:34.569Z,86.52
2022-12-03T07:34:35.060Z,86.52
2022-12-03T07:35:34.488Z,87.04
2022-12-03T07:36:35.539Z,86.63
2022-12-03T07:37:34.466Z,86.63
2022-12-03T07:38:34.456Z,86.63
2022-12-03T07:39:34.441Z,86.25
2022-12-03T07:40:34.459Z,87.29
2022-12-03T07:41:34.451Z,86.98
2022-12-03T07:42:34.410Z,86.67
2022-12-03T07:43:34.494Z,87.29
2022-12-03T07:44:34.407Z,87.60
2022-12-03T07:45:34.404Z,87.81
2022-12-03T07:46:34.435Z,87.19
2022-12-03T07:47:34.431Z,87.60
2022-12-03T07:48:34.344Z,87.25
2022-12-03T07:49:34.325Z,87.29
2022-12-03T07:50:34.337Z,87.25
2022-12-03T07:51:34.365Z,87.35
2022-12-03T07:52:34.310Z,87.56
2022-12-03T07:53:34.302Z,87.25
2022-12-03T07:54:34.304Z,87.46
2022-12-03T07:55:34.258Z,87.35
2022-12-03T07:56:34.246Z,87.15
2022-12-03T07:57:34.285Z,86.94
2022-12-03T07:58:34.247Z,86.32
2022-12-03T07:59:34.218Z,86.73
2022-12-03T08:00:34.264Z,87.15
2022-12-03T08:01:34.428Z,86.63
2022-12-03T08:02:34.234Z,86.63
2022-12-03T08:03:34.195Z,86.11
2022-12-03T08:04:34.156Z,86.94
2022-12-03T08:05:34.169Z,87.04
2022-12-03T08:06:34.141Z,87.04
2022-12-03T08:07:34.229Z,86.21
2022-12-03T08:08:34.123Z,86.63
2022-12-03T08:09:34.110Z,86.32
2022-12-03T08:10:34.107Z,86.59
2022-12-03T08:11:34.168Z,86.32
2022-12-03T08:12:34.082Z,86.11
2022-12-03T08:13:34.066Z,86.21
2022-12-03T08:14:34.073Z,86.11
2022-12-03T08:15:39.271Z,86.52
2022-12-03T08:16:35.108Z,86.42
2022-12-03T08:17:34.071Z,86.52
2022-12-03T08:18:34.007Z,86.63
2022-12-03T08:19:34.016Z,86.73
2022-12-03T08:20:34.008Z,86.42
2022-12-03T08:21:33.979Z,86.42
2022-12-03T08:22:33.965Z,86.32
2022-12-03T08:23:34.001Z,86.32
2022-12-03T08:24:33.962Z,86.21
2022-12-03T08:25:33.940Z,86.42
2022-12-03T08:26:33.948Z,86.63
2022-12-03T08:27:33.916Z,86.32
2022-12-03T08:28:33.905Z,86.42
2022-12-03T08:29:33.938Z,87.25
2022-12-03T08:30:33.884Z,87.25
2022-12-03T08:31:34.045Z,87.04
2022-12-03T08:32:33.859Z,87.04
2022-12-03T08:33:33.887Z,87.04
2022-12-03T08:34:33.865Z,86.63
2022-12-03T08:35:33.831Z,86.42
2022-12-03T08:36:33.833Z,86.52
2022-12-03T08:37:33.838Z,87.15
2022-12-03T08:38:33.794Z,87.15
2022-12-03T08:39:33.869Z,87.04
2022-12-03T08:40:33.773Z,87.25
2022-12-03T08:41:33.801Z,87.04
2022-12-03T08:42:33.781Z,87.04
2022-12-03T08:43:33.744Z,87.25
2022-12-03T08:44:33.725Z,87.25
2022-12-03T08:45:33.776Z,86.63
2022-12-03T08:46:33.731Z,86.73
2022-12-03T08:47:33.775Z,87.46
2022-12-03T08:48:33.700Z,87.35
2022-12-03T08:49:33.681Z,87.35
2022-12-03T08:50:33.683Z,87.11
2022-12-03T08:51:33.668Z,87.04
2022-12-03T08:52:33.649Z,87.04
2022-12-03T08:53:33.652Z,86.94
2022-12-03T08:54:33.626Z,87.21
2022-12-03T08:55:33.613Z,87.46
2022-12-03T08:56:33.651Z,86.63
2022-12-03T08:57:33.604Z,86.32
2022-12-03T08:58:33.610Z,86.42
2022-12-03T08:59:33.572Z,86.63
2022-12-03T09:00:33.571Z,86.42
2022-12-03T09:01:33.663Z,86.21
2022-12-03T09:02:33.551Z,86.73
2022-12-03T09:03:33.572Z,86.94
2022-12-03T09:04:33.594Z,87.04
2022-12-03T09:05:33.530Z,87.15
2022-12-03T09:06:33.494Z,87.04
2022-12-03T09:07:33.546Z,87.35
2022-12-03T09:08:33.478Z,86.94
2022-12-03T09:09:33.681Z,87.35
2022-12-03T09:10:33.455Z,87.25
2022-12-03T09:11:33.466Z,87.35
2022-12-03T09:12:33.472Z,87.21
2022-12-03T09:13:33.457Z,87.52
2022-12-03T09:14:33.444Z,87.77
2022-12-03T09:15:33.474Z,87.52
2022-12-03T09:16:33.441Z,87.84
2022-12-03T09:17:33.377Z,87.32
2022-12-03T09:18:33.393Z,87.11
2022-12-03T09:19:33.441Z,87.52
2022-12-03T09:20:33.359Z,87.01
2022-12-03T09:21:33.338Z,87.21
2022-12-03T09:22:33.424Z,87.32
2022-12-03T09:23:33.320Z,87.52
2022-12-03T09:24:33.325Z,86.80
2022-12-03T09:25:33.325Z,87.52
2022-12-03T09:26:33.276Z,87.35
2022-12-03T09:27:33.290Z,87.21
2022-12-03T09:28:33.273Z,87.32
2022-12-03T09:29:33.319Z,87.52
2022-12-03T09:30:33.346Z,87.42
2022-12-03T09:31:33.274Z,86.90
2022-12-03T09:32:33.296Z,86.90
2022-12-03T09:33:33.226Z,87.15
2022-12-03T09:34:33.209Z,87.04
2022-12-03T09:35:33.222Z,87.04
2022-12-03T09:36:33.190Z,87.35
2022-12-03T09:37:33.227Z,86.83
2022-12-03T09:38:33.160Z,86.83
2022-12-03T09:39:33.177Z,87.66
2022-12-03T09:40:33.180Z,86.94
2022-12-03T09:41:33.167Z,87.42
2022-12-03T09:42:33.125Z,87.32
2022-12-03T09:44:02.844Z,87.21
2022-12-03T09:44:34.109Z,87.42
2022-12-03T09:45:33.137Z,86.38
2022-12-03T09:46:33.162Z,85.28
2022-12-03T09:47:33.065Z,86.11
2022-12-03T09:48:33.077Z,86.52
2022-12-03T09:49:33.039Z,86.32
2022-12-03T09:50:33.106Z,86.17
2022-12-03T09:51:33.016Z,86.42
2022-12-03T09:52:33.029Z,86.17
2022-12-03T09:53:38.074Z,86.49
2022-12-03T09:54:33.993Z,86.38
2022-12-03T09:55:33.014Z,86.38
2022-12-03T09:56:33.033Z,86.59
2022-12-03T09:57:32.961Z,86.27
2022-12-03T09:58:34.920Z,86.17
2022-12-03T09:59:32.962Z,86.59
2022-12-03T10:00:32.920Z,86.42
2022-12-03T10:01:32.954Z,86.73
2022-12-03T10:02:32.926Z,87.25
2022-12-03T10:03:32.889Z,87.11
2022-12-03T10:04:32.927Z,86.59
2022-12-03T10:05:32.926Z,86.90
2022-12-03T10:06:32.856Z,86.52
2022-12-03T10:07:32.910Z,86.59
2022-12-03T10:08:32.911Z,87.21
2022-12-03T10:09:32.825Z,87.11
2022-12-03T10:10:32.814Z,87.01
2022-12-03T10:11:32.825Z,86.49
2022-12-03T10:12:32.791Z,86.38
2022-12-03T10:13:32.795Z,86.73
2022-12-03T10:14:32.769Z,86.63
2022-12-03T10:15:32.760Z,86.38
2022-12-03T10:16:32.898Z,86.42
2022-12-03T10:17:32.759Z,86.42
2022-12-03T10:18:36.892Z,86.69
2022-12-03T10:19:33.836Z,86.00
2022-12-03T10:20:32.714Z,86.63
2022-12-03T10:21:32.739Z,86.94
2022-12-03T10:22:32.770Z,87.04
2022-12-03T10:23:32.734Z,87.25
2022-12-03T10:24:32.714Z,87.01
2022-12-03T10:25:32.649Z,87.11
2022-12-03T10:26:32.635Z,86.49
2022-12-03T10:27:32.632Z,86.38
2022-12-03T10:28:32.618Z,86.27
2022-12-03T10:29:34.303Z,86.73
2022-12-03T10:30:32.646Z,87.01
2022-12-03T10:31:32.748Z,86.90
2022-12-03T10:32:32.590Z,87.32
2022-12-03T10:33:32.571Z,87.11
2022-12-03T10:34:32.566Z,87.11
2022-12-03T10:35:32.541Z,86.27
2022-12-03T10:36:32.576Z,86.69
2022-12-03T10:37:32.524Z,86.69
2022-12-03T10:38:32.523Z,86.38
2022-12-03T10:39:32.525Z,86.80
2022-12-03T10:40:32.485Z,86.38
2022-12-03T10:41:32.518Z,86.07
2022-12-03T10:42:32.481Z,86.27
2022-12-03T10:43:32.482Z,86.38
2022-12-03T10:44:32.448Z,85.75
2022-12-03T10:45:32.459Z,86.69
2022-12-03T10:46:32.691Z,86.80
2022-12-03T10:47:32.636Z,85.44
2022-12-03T10:48:32.402Z,86.38
2022-12-03T10:49:32.444Z,86.38
2022-12-03T10:50:32.399Z,86.38
2022-12-03T10:51:32.389Z,86.17
2022-12-03T10:52:32.402Z,86.17
2022-12-03T10:53:32.360Z,85.65
2022-12-03T10:54:32.335Z,85.24
2022-12-03T10:55:32.323Z,85.44
2022-12-03T10:56:32.329Z,85.86
2022-12-03T10:57:32.303Z,85.51
2022-12-03T10:58:32.307Z,86.17
2022-12-03T10:59:32.281Z,86.17
2022-12-03T11:00:32.280Z,86.13
2022-12-03T11:01:32.474Z,86.49
2022-12-03T11:02:32.382Z,86.17
2022-12-03T11:03:32.376Z,86.17
2022-12-03T11:04:32.265Z,86.13
2022-12-03T11:05:32.216Z,86.34
2022-12-03T11:06:32.222Z,86.86
2022-12-03T11:07:32.231Z,85.72
2022-12-03T11:08:32.211Z,85.41
2022-12-03T11:09:32.232Z,85.51
2022-12-03T11:10:32.196Z,85.65
2022-12-03T11:11:32.153Z,86.55
2022-12-03T11:12:32.233Z,86.34
2022-12-03T11:13:32.136Z,86.13
2022-12-03T11:14:32.140Z,86.44
2022-12-03T11:15:32.174Z,86.44
2022-12-03T11:16:32.211Z,86.65
2022-12-03T11:17:32.093Z,86.13
2022-12-03T11:18:32.148Z,86.34
2022-12-03T11:19:32.072Z,86.55
2022-12-03T11:20:32.080Z,86.24
2022-12-03T11:21:32.116Z,85.82
2022-12-03T11:22:32.055Z,85.20
2022-12-03T11:23:32.026Z,85.72
2022-12-03T11:24:32.046Z,85.30
2022-12-03T11:25:32.040Z,85.41
2022-12-03T11:26:32.050Z,85.61
2022-12-03T11:27:31.983Z,85.93
2022-12-03T11:28:31.975Z,86.03
2022-12-03T11:29:31.990Z,85.44
2022-12-03T11:30:31.978Z,86.13
2022-12-03T11:31:32.039Z,86.59
2022-12-03T11:32:32.190Z,86.27
2022-12-03T11:33:31.948Z,87.11
2022-12-03T11:34:31.935Z,86.38
2022-12-03T11:35:31.906Z,85.93
2022-12-03T11:36:54.041Z,86.44
2022-12-03T11:37:32.880Z,86.34
2022-12-03T11:38:31.893Z,86.65
2022-12-03T11:39:31.881Z,85.51
2022-12-03T11:40:37.724Z,85.61
2022-12-03T11:41:32.844Z,86.13
2022-12-03T11:42:31.846Z,86.09
2022-12-03T11:43:31.943Z,85.99
2022-12-03T11:44:31.848Z,85.61
2022-12-03T11:45:31.830Z,85.61
2022-12-03T11:46:31.900Z,85.51
2022-12-03T11:47:31.889Z,86.34
2022-12-03T11:48:31.759Z,86.44
2022-12-03T11:49:31.816Z,86.44
2022-12-03T11:50:39.074Z,86.44
2022-12-03T11:51:32.722Z,86.34
2022-12-03T11:52:31.783Z,86.13
2022-12-03T11:53:31.714Z,86.34
2022-12-03T11:54:31.739Z,86.27
2022-12-03T11:55:31.702Z,86.69
2022-12-03T11:56:31.677Z,86.96
2022-12-03T11:57:31.669Z,87.07
2022-12-03T11:58:31.793Z,87.27
2022-12-03T11:59:31.660Z,86.76
2022-12-03T12:00:31.630Z,86.86
2022-12-03T12:01:35.447Z,86.65
2022-12-03T12:02:32.661Z,86.44
2022-12-03T12:03:33.504Z,86.55
2022-12-03T12:04:31.707Z,86.41
2022-12-03T12:05:31.578Z,86.34
2022-12-03T12:06:31.667Z,86.44
2022-12-03T12:07:31.624Z,86.09
2022-12-03T12:08:31.546Z,86.30
2022-12-03T12:09:31.543Z,86.51
2022-12-03T12:10:31.561Z,86.51
2022-12-03T12:11:31.544Z,86.34
2022-12-03T12:12:31.497Z,86.09
2022-12-03T12:13:31.515Z,86.30
2022-12-03T12:14:31.488Z,86.09
2022-12-03T12:15:31.478Z,86.26
2022-12-03T12:16:31.569Z,86.26
2022-12-03T12:17:31.492Z,86.61
2022-12-03T12:18:31.455Z,85.85
2022-12-03T12:19:31.514Z,85.02
2022-12-03T12:20:31.414Z,85.26
2022-12-03T12:21:31.400Z,85.12
2022-12-03T12:22:31.438Z,85.05
2022-12-03T12:23:31.381Z,85.26
2022-12-03T12:24:31.391Z,85.33
2022-12-03T12:25:31.371Z,86.05
2022-12-03T12:26:31.382Z,85.16
2022-12-03T12:27:31.332Z,85.12
2022-12-03T12:28:31.370Z,85.43
2022-12-03T12:29:31.318Z,85.33
2022-12-03T12:30:31.321Z,84.95
2022-12-03T12:31:31.382Z,85.12
2022-12-03T12:32:31.280Z,84.91
2022-12-03T12:33:31.303Z,85.33
2022-12-03T12:34:31.334Z,84.91
2022-12-03T12:35:31.264Z,84.70
2022-12-03T12:36:31.241Z,85.12
2022-12-03T12:37:31.232Z,85.88
2022-12-03T12:38:31.244Z,85.57
2022-12-03T12:39:31.211Z,85.57
2022-12-03T12:40:31.285Z,85.26
2022-12-03T12:41:31.187Z,85.36
2022-12-03T12:42:31.204Z,85.88
2022-12-03T12:43:31.167Z,85.36
2022-12-03T12:44:31.160Z,85.88
2022-12-03T12:45:31.169Z,85.36
2022-12-03T12:46:48.335Z,85.26
2022-12-03T12:47:32.203Z,85.05
2022-12-03T12:48:31.130Z,85.05
2022-12-03T12:49:31.098Z,85.02
2022-12-03T12:50:31.123Z,85.26
2022-12-03T12:51:31.078Z,85.47
2022-12-03T12:52:31.072Z,85.26
2022-12-03T12:53:31.080Z,86.09
2022-12-03T12:54:31.054Z,86.30
2022-12-03T12:55:31.091Z,86.41
2022-12-03T12:56:31.047Z,86.30
2022-12-03T12:57:31.022Z,86.19
2022-12-03T12:58:31.020Z,86.30
2022-12-03T12:59:31.007Z,86.36
2022-12-03T13:00:31.069Z,86.47
2022-12-03T13:01:31.073Z,86.05
2022-12-03T13:02:31.031Z,86.36
2022-12-03T13:03:30.952Z,85.95
2022-12-03T13:04:30.976Z,86.36
2022-12-03T13:05:30.945Z,86.57
2022-12-03T13:06:30.923Z,86.05
2022-12-03T13:07:30.936Z,85.33
2022-12-03T13:08:30.914Z,85.43
2022-12-03T13:09:30.893Z,85.85
2022-12-03T13:10:30.894Z,85.19
2022-12-03T13:11:30.878Z,85.22
2022-12-03T13:12:30.861Z,85.33
2022-12-03T13:13:30.880Z,85.02
2022-12-03T13:14:30.856Z,85.22
2022-12-03T13:15:30.823Z,85.33
2022-12-03T13:16:30.920Z,85.12
2022-12-03T13:17:30.833Z,85.53
2022-12-03T13:18:30.810Z,86.26
2022-12-03T13:19:30.784Z,85.99
2022-12-03T13:20:30.771Z,86.41
2022-12-03T13:21:30.764Z,86.36
2022-12-03T13:22:30.786Z,86.16
2022-12-03T13:23:30.773Z,86.05
2022-12-03T13:24:30.738Z,86.16
2022-12-03T13:25:57.395Z,86.16
2022-12-03T13:26:38.061Z,85.95
2022-12-03T13:27:31.713Z,86.68
2022-12-03T13:28:30.708Z,85.53
2022-12-03T13:29:30.785Z,85.43
2022-12-03T13:30:30.701Z,86.57
2022-12-03T13:31:30.701Z,85.53
2022-12-03T13:32:30.655Z,86.16
2022-12-03T13:33:30.637Z,86.68
2022-12-03T13:34:30.631Z,86.16
2022-12-03T13:35:30.630Z,86.26
2022-12-03T13:36:30.603Z,86.26
2022-12-03T13:37:30.624Z,86.05
2022-12-03T13:38:30.588Z,86.05
2022-12-03T13:39:30.619Z,86.30
2022-12-03T13:40:30.595Z,86.36
2022-12-03T13:41:30.566Z,86.30
2022-12-03T13:42:30.569Z,86.19
2022-12-03T13:43:30.539Z,86.09
2022-12-03T13:44:30.507Z,86.16
2022-12-03T13:45:30.514Z,86.30
2022-12-03T13:46:30.561Z,86.30
2022-12-03T13:47:30.479Z,86.30
2022-12-03T13:48:30.486Z,86.41
2022-12-03T13:49:30.456Z,86.41
2022-12-03T13:50:30.448Z,87.03
2022-12-03T13:51:30.435Z,86.61
2022-12-03T13:52:30.440Z,86.61
2022-12-03T13:53:30.451Z,86.41
2022-12-03T13:54:30.405Z,86.51
2022-12-03T13:55:30.397Z,86.82
2022-12-03T13:56:30.397Z,86.72
2022-12-03T13:57:30.374Z,87.45
2022-12-03T13:58:30.362Z,87.13
2022-12-03T13:59:30.378Z,87.13
2022-12-03T14:00:30.337Z,87.34
2022-12-03T14:01:30.437Z,86.93
2022-12-03T14:02:30.427Z,86.82
2022-12-03T14:03:30.325Z,87.13
2022-12-03T14:04:30.309Z,86.72
2022-12-03T14:05:30.305Z,87.03
2022-12-03T14:06:30.272Z,87.13
2022-12-03T14:07:30.320Z,87.13
2022-12-03T14:08:30.257Z,86.93
2022-12-03T14:09:30.241Z,87.24
2022-12-03T14:10:30.238Z,87.34
2022-12-03T14:11:30.256Z,87.13
2022-12-03T14:12:30.218Z,87.45
2022-12-03T14:13:30.258Z,87.55
2022-12-03T14:14:30.189Z,87.40
2022-12-03T14:15:30.177Z,87.34
2022-12-03T14:16:30.214Z,87.19
2022-12-03T14:17:30.152Z,87.61
2022-12-03T14:18:30.176Z,87.71
2022-12-03T14:19:30.151Z,87.30
2022-12-03T14:20:30.192Z,86.78
2022-12-03T14:21:30.275Z,86.78
2022-12-03T14:22:30.103Z,86.99
2022-12-03T14:23:30.121Z,86.99
2022-12-03T14:24:30.129Z,86.99
2022-12-03T14:25:30.079Z,86.26
2022-12-03T14:26:30.071Z,86.05
2022-12-03T14:27:30.045Z,86.26
2022-12-03T14:28:30.041Z,86.36
2022-12-03T14:29:30.074Z,86.16
2022-12-03T14:30:30.010Z,86.36
2022-12-03T14:31:30.102Z,86.47
2022-12-03T14:32:30.026Z,86.54
2022-12-03T14:33:30.000Z,86.22
2022-12-03T14:34:30.001Z,86.33
2022-12-03T14:35:29.962Z,86.22
2022-12-03T14:36:29.974Z,86.02
2022-12-03T14:37:29.945Z,85.95
2022-12-03T14:38:29.936Z,86.12
2022-12-03T14:39:29.937Z,86.33
2022-12-03T14:40:29.928Z,86.36
2022-12-03T14:41:29.897Z,86.36
2022-12-03T14:42:29.887Z,86.16
2022-12-03T14:43:29.876Z,86.36
2022-12-03T14:44:29.881Z,86.99
2022-12-03T14:45:29.958Z,86.88
2022-12-03T14:46:29.899Z,87.19
2022-12-03T14:47:29.857Z,86.16
2022-12-03T14:48:29.846Z,86.36
2022-12-03T14:49:29.819Z,86.26
2022-12-03T14:50:29.825Z,86.88
2022-12-03T14:51:29.806Z,86.88
2022-12-03T14:52:29.805Z,87.09
2022-12-03T14:53:29.777Z,86.68
2022-12-03T14:54:29.786Z,86.78
2022-12-03T14:55:29.748Z,86.33
2022-12-03T14:56:29.757Z,86.36
2022-12-03T14:57:29.725Z,86.36
2022-12-03T14:58:29.729Z,86.47
2022-12-03T14:59:29.732Z,86.26
2022-12-03T15:00:29.693Z,86.26
2022-12-03T15:01:29.792Z,86.05
2022-12-03T15:02:29.796Z,86.26
2022-12-03T15:03:29.712Z,86.57
2022-12-03T15:04:29.678Z,86.57
2022-12-03T15:05:29.649Z,86.61
2022-12-03T15:06:29.646Z,86.61
2022-12-03T15:07:29.697Z,86.99
2022-12-03T15:08:29.607Z,86.88
2022-12-03T15:09:29.622Z,87.09
2022-12-03T15:10:29.592Z,86.99
2022-12-03T15:11:29.619Z,86.93
2022-12-03T15:12:29.567Z,86.88
2022-12-03T15:13:29.577Z,86.88
2022-12-03T15:14:29.547Z,87.09
2022-12-03T15:15:29.557Z,86.88
2022-12-03T15:16:29.563Z,86.99
2022-12-03T15:17:32.041Z,86.99
2022-12-03T15:18:29.509Z,86.88
2022-12-03T15:19:29.496Z,86.88
2022-12-03T15:20:29.478Z,86.88
2022-12-03T15:21:29.472Z,86.68
2022-12-03T15:22:29.496Z,86.99
2022-12-03T15:23:29.518Z,87.19
2022-12-03T15:24:29.434Z,87.09
2022-12-03T15:25:29.457Z,87.30
2022-12-03T15:26:29.415Z,87.19
2022-12-03T15:27:29.431Z,86.99
2022-12-03T15:28:29.413Z,86.26
2022-12-03T15:29:29.381Z,86.19
2022-12-03T15:30:29.373Z,86.51
2022-12-03T15:31:29.425Z,86.51
2022-12-03T15:32:29.363Z,87.19
2022-12-03T15:33:29.353Z,87.13
2022-12-03T15:34:29.329Z,87.13
2022-12-03T15:35:29.317Z,87.34
2022-12-03T15:36:29.324Z,86.99
2022-12-03T15:37:29.307Z,86.82
2022-12-03T15:38:29.321Z,86.61
2022-12-03T15:39:29.282Z,86.72
2022-12-03T15:40:29.267Z,87.34
2022-12-03T15:41:29.260Z,86.93
2022-12-03T15:42:29.265Z,87.65
2022-12-03T15:43:29.237Z,87.55
2022-12-03T15:44:29.234Z,87.65
2022-12-03T15:45:29.210Z,88.44
2022-12-03T15:46:29.240Z,88.23
2022-12-03T15:47:29.212Z,88.07
2022-12-03T15:48:29.213Z,88.75
2022-12-03T15:49:29.173Z,88.65
2022-12-03T15:50:29.153Z,88.54
2022-12-03T15:51:29.151Z,88.38
2022-12-03T15:52:29.149Z,87.82
2022-12-03T15:53:29.130Z,87.34
2022-12-03T15:54:29.149Z,88.13
2022-12-03T15:55:29.119Z,88.13
2022-12-03T15:56:29.091Z,87.92
2022-12-03T15:57:29.094Z,87.86
2022-12-03T15:58:29.064Z,86.82
2022-12-03T15:59:29.060Z,87.13
2022-12-03T16:00:29.082Z,86.82
2022-12-03T16:01:29.170Z,87.27
2022-12-03T16:02:29.120Z,87.45
2022-12-03T16:03:29.143Z,87.13
2022-12-03T16:04:29.003Z,87.45
2022-12-03T16:05:29.050Z,87.65
2022-12-03T16:06:29.015Z,87.65
2022-12-03T16:07:29.059Z,88.31
2022-12-03T16:08:28.983Z,88.62
2022-12-03T16:09:28.957Z,88.62
2022-12-03T16:10:28.950Z,88.52
2022-12-03T16:11:28.947Z,88.69
2022-12-03T16:12:28.916Z,88.38
2022-12-03T16:13:28.937Z,88.48
2022-12-03T16:14:28.906Z,88.38
2022-12-03T16:15:28.908Z,87.86
2022-12-03T16:16:28.920Z,88.38
2022-12-03T16:17:28.883Z,88.38
2022-12-03T16:18:28.885Z,88.28
2022-12-03T16:19:28.894Z,88.69
2022-12-03T16:20:28.839Z,88.28
2022-12-03T16:21:28.827Z,88.48
2022-12-03T16:22:28.812Z,88.38
2022-12-03T16:23:28.801Z,88.21
2022-12-03T16:24:28.798Z,88.79
2022-12-03T16:25:28.798Z,88.21
2022-12-03T16:26:28.835Z,88.38
2022-12-03T16:27:28.758Z,88.38
2022-12-03T16:28:28.743Z,88.59
2022-12-03T16:29:28.740Z,88.38
2022-12-03T16:30:28.736Z,88.48
2022-12-03T16:31:28.820Z,88.59
2022-12-03T16:32:28.719Z,88.59
2022-12-03T16:33:28.692Z,88.07
2022-12-03T16:34:28.691Z,88.59
2022-12-03T16:35:28.679Z,88.69
2022-12-03T16:36:28.681Z,88.17
2022-12-03T16:37:28.665Z,88.69
2022-12-03T16:38:28.684Z,87.96
2022-12-03T16:39:28.669Z,88.48
2022-12-03T16:40:28.627Z,88.44
2022-12-03T16:41:28.606Z,87.65
2022-12-03T16:42:28.614Z,87.34
2022-12-03T16:43:28.602Z,87.55
2022-12-03T16:44:28.580Z,88.23
2022-12-03T16:45:28.634Z,88.34
2022-12-03T16:46:28.601Z,88.38
2022-12-03T16:47:33.628Z,88.44
2022-12-03T16:48:29.575Z,87.71
2022-12-03T16:49:28.551Z,88.44
2022-12-03T16:50:30.210Z,88.34
2022-12-03T16:51:28.535Z,88.23
2022-12-03T16:52:28.489Z,88.75
2022-12-03T16:53:28.492Z,88.75
2022-12-03T16:54:28.494Z,88.85
2022-12-03T16:55:28.484Z,88.23
2022-12-03T16:56:28.450Z,88.13
2022-12-03T16:57:33.382Z,87.51
2022-12-03T16:58:29.505Z,88.34
2022-12-03T16:59:28.427Z,88.23
2022-12-03T17:00:28.435Z,88.23
2022-12-03T17:01:28.421Z,88.23
2022-12-03T17:02:28.453Z,88.34
2022-12-03T17:03:33.617Z,87.55
2022-12-03T17:04:29.381Z,87.45
2022-12-03T17:05:28.385Z,87.65
2022-12-03T17:06:28.348Z,87.61
2022-12-03T17:07:28.981Z,87.34
2022-12-03T17:08:28.378Z,87.24
2022-12-03T17:09:28.352Z,87.13
2022-12-03T17:10:28.401Z,87.13
2022-12-03T17:11:28.452Z,87.65
2022-12-03T17:12:42.188Z,87.65
2022-12-03T17:13:29.294Z,88.28
2022-12-03T17:14:33.081Z,87.55
2022-12-03T17:15:29.239Z,87.45
2022-12-03T17:16:28.266Z,87.55
2022-12-03T17:17:28.250Z,88.28
2022-12-03T17:18:28.199Z,88.48
2022-12-03T17:19:28.225Z,88.48
2022-12-03T17:20:28.183Z,88.38
2022-12-03T17:21:32.155Z,87.76
2022-12-03T17:22:29.163Z,88.59
2022-12-03T17:23:28.223Z,88.28
2022-12-03T17:24:28.140Z,88.59
2022-12-03T17:25:28.178Z,88.48
2022-12-03T17:26:28.119Z,88.28
2022-12-03T17:27:28.108Z,88.07
2022-12-03T17:28:28.098Z,87.55
2022-12-03T17:29:28.107Z,87.76
2022-12-03T17:30:28.092Z,88.38
2022-12-03T17:31:28.211Z,88.23
2022-12-03T17:32:28.054Z,87.96
2022-12-03T17:33:28.048Z,87.45
2022-12-03T17:34:28.031Z,87.65
2022-12-03T17:35:28.046Z,88.38
2022-12-03T17:36:28.009Z,87.96
2022-12-03T17:37:28.018Z,87.86
2022-12-03T17:38:27.993Z,88.59
2022-12-03T17:39:27.984Z,88.59
2022-12-03T17:40:27.964Z,88.28
2022-12-03T17:41:27.956Z,88.48
2022-12-03T17:42:27.977Z,87.55
2022-12-03T17:43:27.945Z,88.38
2022-12-03T17:44:27.923Z,88.38
2022-12-03T17:45:27.930Z,88.17
2022-12-03T17:46:28.018Z,88.79
2022-12-03T17:47:27.928Z,88.59
2022-12-03T17:48:27.880Z,88.48
2022-12-03T17:49:31.527Z,88.38
2022-12-03T17:50:27.882Z,88.59
2022-12-03T17:51:27.887Z,88.90
2022-12-03T17:52:27.835Z,88.69
2022-12-03T17:53:27.834Z,88.17
2022-12-03T17:54:43.264Z,88.59
2022-12-03T17:55:37.248Z,88.79
2022-12-03T17:56:28.860Z,88.28
2022-12-03T17:57:27.804Z,88.69
2022-12-03T17:58:27.799Z,88.59
2022-12-03T17:59:27.764Z,88.28
2022-12-03T18:00:27.878Z,88.48
2022-12-03T18:01:27.808Z,88.94
2022-12-03T18:02:27.747Z,88.59
2022-12-03T18:03:27.796Z,88.48
2022-12-03T18:04:27.844Z,88.59
2022-12-03T18:05:27.735Z,88.90
2022-12-03T18:06:27.730Z,88.59
2022-12-03T18:07:27.760Z,88.79
2022-12-03T18:08:27.662Z,88.79
2022-12-03T18:09:29.217Z,88.59
2022-12-03T18:10:29.150Z,88.69
2022-12-03T18:11:28.152Z,88.69
2022-12-03T18:12:28.878Z,88.69
2022-12-03T18:13:30.328Z,88.59
2022-12-03T18:14:29.776Z,88.59
2022-12-03T18:15:28.067Z,88.48
2022-12-03T18:16:28.676Z,88.28
2022-12-03T18:17:28.612Z,88.69
2022-12-03T18:18:27.820Z,88.69
2022-12-03T18:19:28.163Z,88.17
2022-12-03T18:20:27.735Z,88.28
2022-12-03T18:21:28.511Z,88.69
2022-12-03T18:22:27.538Z,88.48